Time;durP1;ratioP1;P1;durP2;ratioP2;P2;SDS_P1;SDS_P2;PMS_P1;PMS_P2;Temp;Humidity;BMP_temperature;BMP_pressure;BME280_temperature;BME280_humidity;BME280_pressure;Samples;Min_cycle;Max_cycle;Signal;HPM_P1;HPM_P2
2021/06/22 00:00:56;;;;;;;;;16.25;16.00;;;;;28.50;46.68;97977.41;6228506;28;126042;-61
2021/06/22 00:03:59;;;;;;;;;15.50;15.00;;;;;28.45;46.10;97975.72;6229994;28;127019;-62
2021/06/22 00:07:03;;;;;;;;;16.00;15.00;;;;;28.39;46.77;97969.63;6223699;28;124603;-61
2021/06/22 00:10:07;;;;;;;;;14.20;14.00;;;;;28.29;46.82;97978.53;6223498;28;125995;-61
2021/06/22 00:13:12;;;;;;;;;15.50;15.00;;;;;28.06;47.16;97947.03;6231898;28;124835;-61
2021/06/22 00:16:16;;;;;;;;;15.40;15.00;;;;;28.02;47.51;97943.38;6218467;28;125988;-61
2021/06/22 00:19:19;;;;;;;;;15.00;14.00;;;;;28.13;47.36;97976.94;6227559;28;125518;-61
2021/06/22 00:22:22;;;;;;;;;15.80;15.00;;;;;28.13;47.65;97988.03;6228208;27;125995;-61
2021/06/22 00:25:26;;;;;;;;;16.00;15.00;;;;;28.12;47.64;97976.13;6224591;27;124168;-62
2021/06/22 00:28:31;;;;;;;;;16.00;15.40;;;;;28.06;47.76;97963.66;6230290;28;125999;-61
2021/06/22 00:31:35;;;;;;;;;17.00;15.00;;;;;28.03;47.69;97975.47;6227049;28;126947;-61
2021/06/22 00:34:38;;;;;;;;;15.20;14.40;;;;;27.95;47.98;97979.25;6233846;28;124836;-61
2021/06/22 00:37:43;;;;;;;;;14.00;14.00;;;;;27.93;47.69;97976.00;6215927;28;123937;-61
2021/06/22 00:40:46;;;;;;;;;16.00;15.00;;;;;27.90;47.63;97966.47;6232234;28;124323;-61
2021/06/22 00:43:51;;;;;;;;;17.20;16.20;;;;;27.90;47.94;97960.13;6235378;28;125562;-61
2021/06/22 00:46:54;;;;;;;;;17.00;16.00;;;;;27.83;47.89;97957.16;6218636;28;124830;-61
2021/06/22 00:49:58;;;;;;;;;14.60;13.60;;;;;27.80;48.33;97952.34;6228850;28;126587;-61
2021/06/22 00:53:02;;;;;;;;;15.00;15.00;;;;;27.82;48.19;97945.28;6204127;28;126131;-61
2021/06/22 00:56:06;;;;;;;;;13.20;13.20;;;;;27.80;48.55;97950.38;6229129;27;124855;-61
2021/06/22 00:59:14;;;;;;;;;18.00;16.00;;;;;27.75;48.31;97942.34;6236622;28;125940;-61
2021/06/22 01:02:19;;;;;;;;;14.20;13.20;;;;;27.80;48.45;97961.47;6225402;28;126751;-61
2021/06/22 01:05:23;;;;;;;;;16.00;15.00;;;;;27.63;48.03;97952.69;6234313;27;125664;-61
2021/06/22 01:08:34;;;;;;;;;14.80;14.00;;;;;27.51;47.71;97936.97;6223558;28;125780;-61
2021/06/22 01:11:38;;;;;;;;;15.20;14.00;;;;;27.68;47.67;97963.50;6233577;27;124844;-62
2021/06/22 01:14:46;;;;;;;;;14.00;14.00;;;;;27.63;47.71;97963.75;6233948;28;124879;-61
2021/06/22 01:17:53;;;;;;;;;13.75;13.75;;;;;27.41;47.80;97935.50;6235499;28;125388;-61
2021/06/22 01:20:58;;;;;;;;;16.00;14.60;;;;;27.52;47.73;97961.50;6217946;28;125905;-61
2021/06/22 01:24:13;;;;;;;;;15.00;14.00;;;;;27.46;47.57;97960.16;6235865;28;126363;-61
2021/06/22 01:27:21;;;;;;;;;15.00;14.00;;;;;27.42;47.38;97956.47;6238551;27;126574;-61
2021/06/22 01:30:26;;;;;;;;;14.00;14.00;;;;;27.38;47.79;97952.78;6222451;28;124837;-61
2021/06/22 01:33:36;;;;;;;;;15.00;14.00;;;;;27.37;47.56;97937.34;6232566;28;124661;-61
2021/06/22 01:36:42;;;;;;;;;12.60;12.00;;;;;27.34;47.77;97943.59;6210079;28;126097;-61
2021/06/22 01:39:47;;;;;;;;;17.00;15.00;;;;;27.26;47.88;97941.81;6217172;28;125280;-61
2021/06/22 01:42:50;;;;;;;;;14.00;14.00;;;;;27.25;48.01;97942.16;6227450;28;124728;-61
2021/06/22 01:45:53;;;;;;;;;14.75;13.00;;;;;27.24;47.83;97949.63;6230272;28;125014;-61
2021/06/22 01:48:58;;;;;;;;;15.00;14.40;;;;;27.05;48.54;97927.38;6235286;28;124119;-61
2021/06/22 01:52:09;;;;;;;;;14.00;13.00;;;;;27.12;47.95;97952.47;6231843;27;126042;-61
2021/06/22 01:58:35;;;;;;;;;16.00;14.00;;;;;27.13;48.44;97945.75;6221257;28;125915;-61
2021/06/22 02:01:46;;;;;;;;;16.50;13.75;;;;;27.00;48.41;97935.91;6212469;28;124919;-61
2021/06/22 02:05:14;;;;;;;;;14.00;14.00;;;;;26.98;48.60;97949.28;6211456;28;125123;-61
2021/06/22 02:08:20;;;;;;;;;14.75;13.75;;;;;26.97;48.74;97948.50;6236505;27;124652;-61
2021/06/22 02:11:23;;;;;;;;;14.75;14.25;;;;;26.74;48.77;97926.06;6222589;28;123961;-61
2021/06/22 02:14:26;;;;;;;;;14.00;13.25;;;;;26.95;48.81;97956.34;6222749;27;126194;-62
2021/06/22 02:17:30;;;;;;;;;15.00;14.00;;;;;26.85;48.97;97926.38;6250216;27;126400;-61
2021/06/22 02:20:36;;;;;;;;;15.00;14.00;;;;;26.88;49.15;97958.88;6233775;28;126047;-61
2021/06/22 02:23:40;;;;;;;;;16.60;14.00;;;;;26.90;49.11;97964.06;6231546;28;126450;-61
2021/06/22 02:26:45;;;;;;;;;14.00;14.00;;;;;26.94;49.22;97967.75;6239621;27;126474;-61
2021/06/22 02:29:50;;;;;;;;;15.20;14.20;;;;;26.86;48.88;97961.22;6247861;27;127631;-61
2021/06/22 02:32:53;;;;;;;;;17.00;16.00;;;;;26.52;49.18;97904.50;6233701;28;125273;-61
2021/06/22 02:36:00;;;;;;;;;16.20;14.20;;;;;27.01;48.96;97982.59;6233716;28;126211;-61
2021/06/22 02:39:15;;;;;;;;;17.00;15.00;;;;;27.01;49.02;97990.09;6226448;28;126917;-61
2021/06/22 02:42:28;;;;;;;;;16.60;14.00;;;;;26.98;49.01;97997.13;6226405;28;126172;-61
2021/06/22 02:45:35;;;;;;;;;16.00;15.20;;;;;27.02;49.08;97998.06;6224788;28;124851;-61
2021/06/22 02:48:45;;;;;;;;;17.40;16.00;;;;;27.02;49.30;98002.78;6235099;28;125261;-61
2021/06/22 02:51:49;;;;;;;;;16.00;16.00;;;;;27.00;49.64;98007.84;6226273;27;126114;-61
2021/06/22 02:54:54;;;;;;;;;18.00;17.00;;;;;26.97;50.01;98009.34;6234531;28;127234;-62
2021/06/22 02:57:58;;;;;;;;;16.00;14.20;;;;;27.01;49.80;98007.50;6231418;28;126207;-61
2021/06/22 03:01:04;;;;;;;;;18.25;17.25;;;;;27.06;49.76;98010.03;6228627;28;125184;-61
2021/06/22 03:04:07;;;;;;;;;18.50;17.50;;;;;27.15;49.75;98007.09;6227576;27;124851;-61
2021/06/22 03:07:12;;;;;;;;;16.00;15.00;;;;;27.22;49.81;98012.03;6208407;28;126715;-61
2021/06/22 03:10:19;;;;;;;;;18.50;16.00;;;;;27.26;50.17;98010.97;6225822;28;124867;-61
2021/06/22 03:13:22;;;;;;;;;20.00;18.40;;;;;27.26;50.19;98021.25;6232093;28;125956;-61
2021/06/22 03:16:27;;;;;;;;;17.00;16.00;;;;;27.31;50.28;98018.22;6231592;28;127135;-61
2021/06/22 03:19:31;;;;;;;;;19.00;18.00;;;;;27.36;49.84;98007.72;6223502;28;126536;-61
2021/06/22 03:22:39;;;;;;;;;19.00;18.00;;;;;27.42;50.21;98008.25;6212488;28;125913;-61
2021/06/22 03:25:44;;;;;;;;;19.00;18.00;;;;;27.46;50.46;98000.88;6213420;28;126244;-61
2021/06/22 03:28:47;;;;;;;;;19.00;18.00;;;;;27.55;50.58;98023.69;6232499;28;126577;-61
2021/06/22 03:32:11;;;;;;;;;19.00;18.00;;;;;27.63;50.44;98019.94;6231362;28;124095;-61
2021/06/22 03:35:16;;;;;;;;;19.80;18.20;;;;;27.67;50.55;98023.59;6223104;28;126878;-61
2021/06/22 03:38:19;;;;;;;;;20.40;20.00;;;;;27.69;50.34;98018.53;6230122;28;126130;-61
2021/06/22 03:41:24;;;;;;;;;20.80;19.00;;;;;27.81;50.92;98032.28;6228239;28;125984;-61
2021/06/22 03:44:28;;;;;;;;;21.00;19.00;;;;;27.88;50.33;98026.16;6229834;28;127836;-61
2021/06/22 03:47:42;;;;;;;;;21.00;19.00;;;;;27.81;49.91;98020.41;6233150;27;126286;-61
2021/06/22 03:50:47;;;;;;;;;19.40;18.40;;;;;27.95;50.17;98035.44;6219269;28;126830;-61
2021/06/22 03:53:51;;;;;;;;;20.80;17.80;;;;;27.86;50.29;98028.44;6232046;27;124682;-61
2021/06/22 03:56:56;;;;;;;;;20.00;20.00;;;;;27.94;50.09;98039.38;6219838;28;126012;-61
2021/06/22 04:00:13;;;;;;;;;20.60;19.40;;;;;27.91;50.32;98031.78;6221651;28;124188;-61
2021/06/22 04:03:20;;;;;;;;;22.00;19.50;;;;;28.02;49.83;98032.06;6224078;28;126516;-61
2021/06/22 04:06:34;;;;;;;;;20.60;19.00;;;;;28.11;49.98;98029.94;6219336;28;124458;-61
2021/06/22 04:09:42;;;;;;;;;21.40;20.00;;;;;28.17;50.00;98031.28;6245326;27;126085;-61
2021/06/22 04:12:47;;;;;;;;;21.00;19.80;;;;;28.28;49.94;98034.31;6229912;27;126278;-61
2021/06/22 04:15:52;;;;;;;;;21.80;20.80;;;;;28.29;49.65;98033.16;6233762;27;125891;-61
2021/06/22 04:18:56;;;;;;;;;21.40;19.00;;;;;28.44;49.15;98018.50;6233094;28;126822;-61
2021/06/22 04:22:05;;;;;;;;;20.00;18.75;;;;;28.57;49.09;98014.44;6237525;27;126384;-61
2021/06/22 04:25:15;;;;;;;;;20.00;19.40;;;;;28.68;49.23;98020.22;6235528;27;125849;-61
2021/06/22 04:28:20;;;;;;;;;20.00;20.00;;;;;28.84;48.85;98023.78;6222348;28;124867;-61
2021/06/22 04:31:23;;;;;;;;;21.00;20.40;;;;;28.82;48.18;98004.75;6232390;27;126312;-61
2021/06/22 04:34:27;;;;;;;;;22.00;19.60;;;;;29.05;47.83;98029.81;6227068;27;126507;-61
2021/06/22 04:37:30;;;;;;;;;19.00;18.40;;;;;29.11;47.26;98028.38;6235233;27;124740;-61
2021/06/22 04:40:35;;;;;;;;;19.25;17.50;;;;;28.96;46.61;97992.34;6229460;27;124923;-61
2021/06/22 04:43:39;;;;;;;;;20.00;19.00;;;;;29.11;47.10;98025.59;6224677;28;125873;-61
2021/06/22 04:46:43;;;;;;;;;20.50;18.50;;;;;29.25;47.03;98033.41;6234280;28;124750;-61
2021/06/22 04:49:46;;;;;;;;;21.25;18.25;;;;;29.26;47.18;98038.59;6234896;27;126148;-62
2021/06/22 04:52:50;;;;;;;;;19.00;17.20;;;;;29.38;46.12;98039.63;6218031;28;127212;-61
2021/06/22 04:55:53;;;;;;;;;16.00;15.00;;;;;29.43;45.92;98044.88;6234238;27;125653;-61
2021/06/22 04:58:58;;;;;;;;;19.00;19.00;;;;;29.57;45.18;98045.97;6228546;28;127535;-61
2021/06/22 05:02:02;;;;;;;;;18.50;17.00;;;;;29.69;45.30;98042.25;6217756;27;124807;-61
2021/06/22 05:05:07;;;;;;;;;20.00;20.00;;;;;29.83;45.40;98036.97;6220945;28;124928;-61
2021/06/22 05:08:10;;;;;;;;;18.00;17.00;;;;;30.03;45.38;98040.53;6229538;27;126319;-62
2021/06/22 05:11:14;;;;;;;;;20.80;19.00;;;;;30.19;44.97;98048.75;6227342;27;125633;-61
2021/06/22 05:14:18;;;;;;;;;17.00;17.00;;;;;30.34;44.35;98059.75;6234953;27;127129;-61
2021/06/22 05:17:21;;;;;;;;;18.75;18.25;;;;;30.38;43.42;98074.50;6217077;28;127101;-61
2021/06/22 05:20:25;;;;;;;;;20.00;19.00;;;;;30.44;43.49;98069.44;6222418;28;126350;-61
2021/06/22 05:23:28;;;;;;;;;19.00;18.40;;;;;30.48;43.23;98062.78;6229054;28;126733;-61
2021/06/22 05:26:31;;;;;;;;;20.00;17.00;;;;;30.50;43.25;98062.41;6225809;27;124224;-61
2021/06/22 05:29:36;;;;;;;;;18.00;16.60;;;;;30.49;43.01;98069.16;6204013;28;127269;-61
2021/06/22 05:32:39;;;;;;;;;19.40;18.40;;;;;30.54;43.44;98072.41;6223940;27;126369;-61
2021/06/22 05:35:42;;;;;;;;;17.00;17.00;;;;;30.61;43.22;98068.94;6229034;28;126047;-61
2021/06/22 05:38:46;;;;;;;;;17.00;16.00;;;;;30.73;42.82;98077.09;6235734;28;126184;-61
2021/06/22 05:41:49;;;;;;;;;17.00;16.00;;;;;30.69;42.76;98075.44;6236341;28;127003;-61
2021/06/22 05:44:54;;;;;;;;;17.60;16.00;;;;;30.78;42.99;98076.78;6229801;28;124109;-61
2021/06/22 05:47:58;;;;;;;;;18.00;18.00;;;;;30.80;42.40;98085.53;6216882;28;127006;-61
2021/06/22 05:51:01;;;;;;;;;17.00;15.00;;;;;30.89;42.81;98082.47;6235340;28;126673;-61
2021/06/22 05:54:05;;;;;;;;;16.80;16.80;;;;;31.02;42.55;98074.75;6236226;28;126419;-61
2021/06/22 05:57:08;;;;;;;;;19.00;17.00;;;;;31.24;42.41;98085.81;6229449;28;124737;-61
2021/06/22 06:00:15;;;;;;;;;17.00;16.00;;;;;31.24;42.50;98079.44;6233893;28;126249;-61
2021/06/22 06:03:18;;;;;;;;;18.00;16.20;;;;;31.40;42.07;98083.66;6232820;28;126046;-61
2021/06/22 06:06:22;;;;;;;;;15.00;15.00;;;;;31.54;41.24;98077.44;6228389;27;124824;-62
2021/06/22 06:09:25;;;;;;;;;17.00;15.00;;;;;31.66;41.58;98080.03;6215606;28;126116;-61
2021/06/22 06:12:29;;;;;;;;;15.00;14.80;;;;;31.75;41.45;98080.53;6225507;27;124032;-62
2021/06/22 06:15:36;;;;;;;;;14.25;14.25;;;;;31.81;41.52;98072.63;6244737;27;125459;-61
2021/06/22 06:18:40;;;;;;;;;17.00;16.00;;;;;31.98;40.89;98063.63;6235868;27;125382;-61
2021/06/22 06:21:44;;;;;;;;;17.50;16.50;;;;;32.22;41.75;98073.47;6225481;28;126168;-61
2021/06/22 06:24:47;;;;;;;;;18.40;16.00;;;;;32.29;40.79;98069.94;6233435;28;126233;-62
2021/06/22 06:27:53;;;;;;;;;16.80;15.00;;;;;32.47;41.27;98066.13;6232124;28;126316;-62
2021/06/22 06:30:58;;;;;;;;;16.00;16.00;;;;;32.56;39.93;98058.22;6232888;27;126110;-61
2021/06/22 06:34:01;;;;;;;;;16.00;15.00;;;;;32.72;39.61;98065.53;6219608;28;126296;-62
2021/06/22 06:37:04;;;;;;;;;16.00;16.00;;;;;32.74;39.36;98069.56;6205440;28;126026;-62
2021/06/22 06:40:09;;;;;;;;;16.00;16.00;;;;;32.79;39.37;98072.00;6227573;27;126858;-62
2021/06/22 06:43:12;;;;;;;;;18.00;16.00;;;;;32.77;39.20;98065.97;6219444;27;124164;-62
2021/06/22 06:46:18;;;;;;;;;16.75;15.75;;;;;32.76;39.71;98071.94;6231857;27;124129;-62
2021/06/22 06:49:21;;;;;;;;;18.00;16.00;;;;;32.82;39.50;98076.78;6224114;27;125966;-61
2021/06/22 06:52:25;;;;;;;;;17.00;15.00;;;;;32.81;40.13;98052.84;6230768;27;125747;-62
2021/06/22 06:55:28;;;;;;;;;16.80;15.20;;;;;33.18;39.79;98077.84;6212412;28;124735;-62
2021/06/22 06:58:32;;;;;;;;;17.00;17.00;;;;;33.24;38.83;98090.22;6199474;28;123869;-62
2021/06/22 07:01:37;;;;;;;;;19.00;18.25;;;;;33.43;39.25;98083.53;6226341;27;126059;-62
2021/06/22 07:04:40;;;;;;;;;20.00;17.75;;;;;33.64;38.62;98088.41;6233963;27;126126;-62
2021/06/22 07:07:44;;;;;;;;;17.00;17.00;;;;;33.65;37.74;98081.66;6227088;28;127274;-62
2021/06/22 07:10:47;;;;;;;;;17.00;16.00;;;;;33.96;38.06;98094.16;6229197;27;126177;-62
2021/06/22 07:13:50;;;;;;;;;17.00;16.00;;;;;34.10;37.85;98103.38;6225636;28;126104;-62
2021/06/22 07:16:55;;;;;;;;;17.00;16.00;;;;;34.30;38.11;98101.06;6213909;28;124879;-62
2021/06/22 07:19:58;;;;;;;;;14.60;14.00;;;;;34.47;36.86;98102.25;6229643;28;125364;-62
2021/06/22 07:23:02;;;;;;;;;15.00;14.00;;;;;34.64;36.84;98101.47;6218035;28;126097;-62
2021/06/22 07:26:05;;;;;;;;;16.60;15.80;;;;;34.80;35.86;98096.28;6201297;28;124918;-62
2021/06/22 07:29:08;;;;;;;;;14.60;14.00;;;;;34.79;35.49;98108.72;6231968;28;125586;-62
2021/06/22 07:32:13;;;;;;;;;15.00;14.00;;;;;34.84;35.61;98105.50;6221244;28;125936;-62
2021/06/22 07:35:16;;;;;;;;;16.40;14.20;;;;;35.04;36.58;98086.28;6231364;28;125864;-62
2021/06/22 07:38:19;;;;;;;;;17.00;17.00;;;;;35.37;35.67;98101.81;6227621;27;126429;-62
2021/06/22 07:41:22;;;;;;;;;15.00;15.00;;;;;35.49;34.21;98104.19;6226851;28;126512;-62
2021/06/22 07:44:26;;;;;;;;;15.00;14.00;;;;;35.66;35.01;98103.34;6228607;27;124953;-62
2021/06/22 07:47:30;;;;;;;;;14.33;14.00;;;;;35.71;34.02;98108.53;6227665;27;126708;-62
2021/06/22 07:50:35;;;;;;;;;13.00;13.00;;;;;35.89;33.78;98112.06;6236965;27;124643;-62
2021/06/22 07:53:38;;;;;;;;;15.00;14.00;;;;;36.15;34.00;98107.94;6224562;27;125870;-62
2021/06/22 07:56:41;;;;;;;;;15.00;15.00;;;;;36.30;32.20;98115.06;6238872;27;126403;-62
2021/06/22 07:59:44;;;;;;;;;14.40;13.40;;;;;36.34;32.04;98124.25;6238352;27;125884;-62
2021/06/22 08:02:49;;;;;;;;;14.00;13.00;;;;;36.23;32.23;98126.31;6238990;27;124981;-62
2021/06/22 08:05:52;;;;;;;;;20.00;19.00;;;;;36.32;33.17;98139.91;6237638;28;126371;-62
2021/06/22 08:08:56;;;;;;;;;14.75;14.00;;;;;36.44;32.24;98136.63;6232011;28;125968;-62
2021/06/22 08:11:59;;;;;;;;;14.00;14.00;;;;;36.78;32.05;98134.78;6220504;28;126995;-62
2021/06/22 08:15:03;;;;;;;;;15.00;13.00;;;;;36.98;31.44;98112.53;6236008;28;127130;-62
2021/06/22 08:18:08;;;;;;;;;15.00;13.20;;;;;37.22;30.14;98134.00;6237902;28;124630;-62
2021/06/22 08:21:12;;;;;;;;;13.00;12.00;;;;;37.52;29.60;98144.53;6221541;28;124616;-62
2021/06/22 08:24:15;;;;;;;;;13.20;12.20;;;;;37.66;29.77;98143.59;6236435;28;125919;-62
2021/06/22 08:27:18;;;;;;;;;15.50;14.50;;;;;37.86;29.36;98157.81;6237662;28;124968;-62
2021/06/22 08:30:25;;;;;;;;;17.00;16.00;;;;;37.81;29.88;98153.47;6237199;28;125890;-62
2021/06/22 08:33:30;;;;;;;;;15.80;13.80;;;;;37.99;30.10;98159.69;6233104;28;124873;-62
2021/06/22 08:36:33;;;;;;;;;15.00;14.00;;;;;38.10;29.91;98165.97;6237205;28;125933;-62
2021/06/22 08:39:37;;;;;;;;;15.00;15.00;;;;;38.11;30.35;98161.94;6228142;28;124595;-62
2021/06/22 08:42:41;;;;;;;;;19.00;17.00;;;;;37.96;31.68;98177.41;6218829;28;125433;-62
2021/06/22 08:45:46;;;;;;;;;20.00;18.00;;;;;37.64;31.20;98146.03;6237074;28;126018;-62
2021/06/22 08:48:51;;;;;;;;;15.00;15.00;;;;;37.67;30.24;98182.56;6219414;28;125332;-62
2021/06/22 08:52:12;;;;;;;;;17.40;16.00;;;;;37.45;30.71;98183.97;6198532;28;124958;-62
2021/06/22 08:55:27;;;;;;;;;19.00;18.00;;;;;37.07;32.33;98185.94;6234963;27;126445;-62
2021/06/22 08:58:31;;;;;;;;;20.00;18.00;;;;;36.93;33.52;98185.22;6220771;28;124939;-62
2021/06/22 09:01:34;;;;;;;;;20.00;18.00;;;;;36.87;34.39;98187.69;6233284;28;127004;-61
2021/06/22 09:04:39;;;;;;;;;17.60;17.40;;;;;36.76;33.42;98192.56;6218804;28;127099;-62
2021/06/22 09:07:47;;;;;;;;;18.00;18.00;;;;;36.67;33.39;98184.63;6236293;28;126152;-62
2021/06/22 09:10:53;;;;;;;;;18.25;17.50;;;;;36.61;33.27;98183.44;6236473;28;125148;-62
2021/06/22 09:13:59;;;;;;;;;20.00;18.00;;;;;36.29;32.67;98177.22;6236565;28;125109;-62
2021/06/22 09:17:03;;;;;;;;;19.20;18.80;;;;;36.22;33.59;98185.66;6218628;28;124566;-62
2021/06/22 09:20:09;;;;;;;;;20.00;19.60;;;;;36.13;33.34;98197.34;6235771;28;125239;-61
2021/06/22 09:23:17;;;;;;;;;18.00;16.00;;;;;36.14;33.13;98186.91;6236788;28;124609;-62
2021/06/22 09:26:22;;;;;;;;;17.00;16.00;;;;;36.30;33.03;98184.44;6218492;28;124817;-62
2021/06/22 09:29:25;;;;;;;;;15.00;15.00;;;;;36.26;32.71;98189.28;6236033;28;125788;-62
2021/06/22 09:32:29;;;;;;;;;13.20;13.20;;;;;36.27;31.79;98171.19;6236764;28;124908;-62
2021/06/22 09:35:33;;;;;;;;;16.00;14.40;;;;;36.36;31.76;98172.34;6219861;28;126546;-62
2021/06/22 09:38:39;;;;;;;;;16.00;15.00;;;;;36.70;31.71;98168.97;6234985;28;125680;-62
2021/06/22 09:41:43;;;;;;;;;16.00;15.40;;;;;37.10;31.07;98165.44;6237137;28;127625;-62
2021/06/22 09:44:46;;;;;;;;;14.25;14.25;;;;;37.22;31.32;98164.13;6236215;28;124611;-62
2021/06/22 09:47:50;;;;;;;;;16.00;14.20;;;;;37.23;30.59;98163.72;6233847;28;125102;-62
2021/06/22 09:50:54;;;;;;;;;16.00;14.00;;;;;37.17;31.10;98150.53;6235531;28;126490;-62
2021/06/22 09:54:14;;;;;;;;;15.00;15.00;;;;;36.87;30.61;98115.44;6236223;28;124969;-61
2021/06/22 09:57:18;;;;;;;;;17.75;16.50;;;;;36.97;30.87;98149.47;6235873;28;124703;-61
2021/06/22 10:00:36;;;;;;;;;19.00;16.50;;;;;36.94;31.13;98150.31;6217120;28;126131;-62
2021/06/22 10:03:40;;;;;;;;;16.50;16.00;;;;;36.84;30.87;98163.22;6220980;28;126249;-62
2021/06/22 10:06:49;;;;;;;;;18.00;16.00;;;;;36.64;31.68;98179.03;6218090;28;124907;-62
2021/06/22 10:09:55;;;;;;;;;17.00;17.00;;;;;36.50;32.02;98174.28;6224359;28;126120;-62
2021/06/22 10:12:58;;;;;;;;;15.40;15.00;;;;;36.41;31.92;98163.50;6231831;28;126382;-61
2021/06/22 10:16:24;;;;;;;;;14.20;14.00;;;;;36.37;32.08;98170.34;6224923;28;126264;-62
2021/06/22 10:19:28;;;;;;;;;15.40;14.40;;;;;36.39;32.74;98173.56;6229782;28;124570;-62
2021/06/22 10:22:34;;;;;;;;;18.00;16.00;;;;;36.33;32.67;98159.13;6235480;28;125745;-62
2021/06/22 10:25:38;;;;;;;;;16.40;14.00;;;;;36.84;32.44;98174.47;6225741;28;126109;-62
2021/06/22 10:28:44;;;;;;;;;12.50;12.50;;;;;36.88;31.64;98178.03;6217781;28;126986;-62
2021/06/22 10:31:50;;;;;;;;;14.00;14.00;;;;;36.97;31.79;98177.56;6220682;28;125667;-62
2021/06/22 10:34:56;;;;;;;;;12.20;12.00;;;;;36.89;31.45;98171.22;6232278;28;125893;-62
2021/06/22 10:38:03;;;;;;;;;14.00;13.00;;;;;37.05;32.30;98168.66;6223387;28;124661;-61
2021/06/22 10:41:09;;;;;;;;;14.20;12.00;;;;;37.22;31.75;98178.19;6233057;28;123877;-62
2021/06/22 10:44:34;;;;;;;;;12.00;11.00;;;;;37.17;30.65;98171.00;6235142;28;126006;-62
2021/06/22 10:47:39;;;;;;;;;14.60;14.00;;;;;37.06;31.22;98164.63;6219746;28;125830;-62
2021/06/22 10:50:42;;;;;;;;;15.00;14.00;;;;;37.15;30.86;98144.50;6234478;28;126513;-61
2021/06/22 10:53:47;;;;;;;;;16.00;14.00;;;;;37.29;31.01;98175.28;6236732;28;96727;-62
2021/06/22 10:56:51;;;;;;;;;13.80;13.00;;;;;37.32;30.96;98168.84;6234391;28;125956;-62
2021/06/22 11:00:03;;;;;;;;;11.60;11.00;;;;;37.21;30.37;98148.47;6233830;28;125955;-62
2021/06/22 11:03:07;;;;;;;;;13.00;13.00;;;;;37.38;30.73;98161.56;6232467;28;124792;-61
2021/06/22 11:06:25;;;;;;;;;12.00;12.00;;;;;37.58;30.71;98156.94;6228089;28;124257;-61
2021/06/22 11:09:30;;;;;;;;;12.60;11.20;;;;;37.65;30.74;98153.25;6223459;28;124291;-61
2021/06/22 11:12:46;;;;;;;;;13.00;13.00;;;;;37.58;30.92;98156.16;6220510;28;124789;-62
2021/06/22 11:15:51;;;;;;;;;13.80;11.00;;;;;37.57;30.38;98155.34;6209369;28;125718;-62
2021/06/22 11:19:08;;;;;;;;;12.00;11.80;;;;;37.41;30.34;98155.09;6223743;28;124750;-62
2021/06/22 11:22:11;;;;;;;;;13.00;11.50;;;;;37.29;30.85;98139.53;6221795;28;124767;-61
2021/06/22 11:25:16;;;;;;;;;14.20;12.60;;;;;37.12;30.74;98139.72;6226209;28;126258;-62
2021/06/22 11:28:21;;;;;;;;;12.00;12.00;;;;;36.95;31.67;98138.63;6227474;28;126568;-61
2021/06/22 11:31:39;;;;;;;;;14.00;13.00;;;;;36.96;32.04;98148.66;6226608;28;127061;-61
2021/06/22 11:34:53;;;;;;;;;14.00;13.20;;;;;36.91;32.27;98163.16;6225355;28;124795;-61
2021/06/22 11:38:13;;;;;;;;;13.00;12.00;;;;;36.98;32.08;98165.91;6228364;28;126382;-61
2021/06/22 11:41:17;;;;;;;;;11.00;11.00;;;;;37.01;31.38;98147.41;6218741;28;125281;-62
2021/06/22 11:44:33;;;;;;;;;11.60;11.00;;;;;36.89;31.43;98163.59;6233950;28;126009;-61
2021/06/22 11:47:57;;;;;;;;;12.25;12.25;;;;;36.56;31.27;98161.38;6225552;28;124582;-61
2021/06/22 11:51:00;;;;;;;;;12.00;12.00;;;;;36.71;31.14;98156.50;6229821;28;126253;-61
2021/06/22 11:54:03;;;;;;;;;12.50;10.50;;;;;36.91;30.32;98154.72;6221842;28;125777;-62
2021/06/22 11:57:14;;;;;;;;;11.00;10.40;;;;;37.03;29.85;98159.06;6223052;28;126288;-62
2021/06/22 12:00:20;;;;;;;;;11.75;11.00;;;;;37.15;30.14;98158.56;6233904;28;126535;-61
2021/06/22 12:03:32;;;;;;;;;13.00;12.00;;;;;37.45;30.18;98153.03;6217611;28;125727;-62
2021/06/22 12:06:35;;;;;;;;;14.00;14.00;;;;;37.51;30.02;98142.94;6231844;28;124643;-62
2021/06/22 12:09:40;;;;;;;;;12.00;12.00;;;;;37.72;30.43;98139.91;6225278;28;127253;-62
2021/06/22 12:12:47;;;;;;;;;14.50;14.00;;;;;37.97;29.93;98150.06;6221259;28;127205;-62
2021/06/22 12:15:50;;;;;;;;;14.25;13.00;;;;;38.14;29.38;98141.38;6224135;28;124550;-62
2021/06/22 12:18:56;;;;;;;;;13.75;13.75;;;;;38.31;29.53;98142.38;6225313;28;124935;-62
2021/06/22 12:22:00;;;;;;;;;13.00;13.00;;;;;38.48;28.38;98135.69;6214577;28;125109;-62
2021/06/22 12:25:03;;;;;;;;;16.00;14.00;;;;;38.69;28.87;98133.75;6231987;28;124029;-61
2021/06/22 12:28:13;;;;;;;;;15.00;14.00;;;;;38.84;28.43;98130.28;6223206;28;127596;-62
2021/06/22 12:31:16;;;;;;;;;15.00;14.60;;;;;38.96;27.68;98126.06;6234937;28;125200;-61
2021/06/22 12:34:21;;;;;;;;;13.25;12.25;;;;;38.99;27.37;98128.06;6236623;28;125664;-62
2021/06/22 12:37:24;;;;;;;;;14.00;14.00;;;;;39.04;26.36;98127.56;6219812;28;126629;-62
2021/06/22 12:40:28;;;;;;;;;12.25;11.75;;;;;39.16;26.94;98121.28;6237490;28;125066;-61
2021/06/22 12:43:49;;;;;;;;;13.00;12.00;;;;;39.39;27.30;98115.63;6236046;28;126032;-62
2021/06/22 12:46:53;;;;;;;;;13.40;13.00;;;;;39.61;26.25;98115.22;6233142;28;125887;-62
2021/06/22 12:49:56;;;;;;;;;12.75;11.75;;;;;39.59;24.40;98112.81;6235522;27;125969;-61
2021/06/22 12:53:01;;;;;;;;;13.40;13.00;;;;;39.56;25.64;98107.25;6234657;28;125419;-62
2021/06/22 12:56:09;;;;;;;;;15.00;15.00;;;;;39.58;25.22;98111.25;6230283;28;124483;-62
2021/06/22 12:59:15;;;;;;;;;15.00;15.00;;;;;39.66;26.46;98111.88;6235411;28;123996;-61
2021/06/22 13:02:23;;;;;;;;;14.00;13.40;;;;;39.76;25.51;98113.72;6237410;28;126931;-61
2021/06/22 13:05:35;;;;;;;;;17.00;16.00;;;;;39.50;26.35;98101.31;6235740;28;127363;-62
2021/06/22 13:08:38;;;;;;;;;19.00;18.00;;;;;39.55;27.32;98114.13;6235380;28;126695;-62
2021/06/22 13:11:51;;;;;;;;;17.50;16.50;;;;;39.47;26.29;98126.78;6226960;28;126395;-62
2021/06/22 13:14:56;;;;;;;;;17.50;17.00;;;;;39.31;26.64;98124.63;6232129;28;127020;-61
2021/06/22 13:17:59;;;;;;;;;16.00;15.00;;;;;38.98;27.02;98120.81;6209938;28;126782;-62
2021/06/22 13:21:11;;;;;;;;;17.00;17.00;;;;;38.96;26.94;98109.16;6220360;28;125745;-62
2021/06/22 13:24:38;;;;;;;;;16.67;16.00;;;;;39.08;27.12;98107.75;6226324;28;124823;-62
2021/06/22 13:27:44;;;;;;;;;15.00;15.00;;;;;39.22;26.86;98107.50;6217448;28;125749;-62
2021/06/22 13:30:49;;;;;;;;;14.60;14.00;;;;;39.33;27.76;98097.66;6224038;28;125129;-62
2021/06/22 13:34:00;;;;;;;;;15.60;15.00;;;;;39.61;27.15;98087.81;6225395;28;124623;-62
2021/06/22 13:37:04;;;;;;;;;18.00;18.00;;;;;39.75;26.16;98073.41;6225397;28;126136;-62
2021/06/22 13:40:09;;;;;;;;;16.00;15.00;;;;;39.87;27.27;98071.97;6230237;28;125927;-62
2021/06/22 13:43:15;;;;;;;;;17.25;16.25;;;;;40.17;26.24;98085.00;6219246;28;125008;-62
2021/06/22 13:46:25;;;;;;;;;18.00;16.60;;;;;40.34;25.64;98083.00;6223823;28;126721;-62
2021/06/22 13:49:36;;;;;;;;;18.00;16.25;;;;;40.24;24.83;98054.59;6224557;28;124884;-62
2021/06/22 13:52:47;;;;;;;;;18.50;18.00;;;;;40.37;25.72;98071.63;6218157;28;124907;-62
2021/06/22 13:55:51;;;;;;;;;16.80;16.00;;;;;40.52;25.17;98078.50;6230824;28;124839;-62
2021/06/22 13:58:54;;;;;;;;;18.60;18.00;;;;;40.28;25.17;98070.66;6222036;28;124806;-62
2021/06/22 14:01:59;;;;;;;;;16.40;15.40;;;;;40.22;25.66;98085.28;6222029;28;128232;-61
2021/06/22 14:05:04;;;;;;;;;17.00;16.00;;;;;40.19;25.64;98074.09;6223580;28;124800;-62
2021/06/22 14:08:09;;;;;;;;;19.00;19.00;;;;;40.00;24.99;98083.38;6233433;28;126204;-62